Mistatim, Canada
Current Conditions -  °F | °C
As of 7:00 AM on Monday 20 Oct 2014 (Local Time) from CYBU Reporting Station
Clear Clear  
Wind Chill: 29°   Ceiling: Unl
Heat Index: 36°   Visibility: 9mi
Dew Point: 36°   Wind: 8mph
Humidity: 100%   Direction: 100°E
Pressure: 29.84"   Gusts: NA
Location:  52.87°N, 103.37°W
Report Text: CYBU 201300Z AUTO 10007KT 9SM CLR 02/02 A2984 RMK SLP121
Loading
Personal Weather Stations






























Interactive Weather Map
Tropical Storm Tracking
New forecast layout! Learn more

10-Day Weather Forecast

Advertisements
Track Severe Weather on mobile